首页
METAR-TAF:

METAR-TAF

机场 :

聖若澤多斯坎波斯, 圣保罗州, 巴西

纬度: 23-14S, 经度: 045-52W, 海拔: 646米

当前天气观测

该预报发布于41分钟前的11:00 UTC
风速2节,风向多变
温度 10°C
湿度 100%
气压 1027 hPa
能见度10公里或以上
1500米以下无云,无积雨云

METAR: SBSJ 231100Z VRB02KT CAVOK 10/10 Q1027

时间: 08:41 (11:41 UTC)

预报

该预报发布于7小时和11分钟前的04:30 UTC
预报有效从23日的 06点(UTC)到 23日的 18点(UTC)
风速节,风向
能見度: 7000
成为
从 23日的 06点(UTC)到 23日的 08点(UTC)
能見度: 5000
散云层高于500英尺
轻雾
几率 30%
从 23日的 09点(UTC)到 23日的 12点(UTC)
能見度: 1500
多云层高于200英尺
碎片雾, 轻雾

TAF: SBSJ 230430Z 2306/2318 00000KT 7000 NSC TN09/2309Z TX25/2317Z BECMG 2306/2308 5000 BR SCT005 PROB30 2309/2312 1500 BCFG BR BKN002 RMK PGQ

超过4000个机场的气象观测和天气预报(METAR&TAF报告)。

可查询的气象台以黄色和红色小点在地图上表示。

将鼠标移到小点上方,可查看气象台名称。

然后点击查看天气观测和预报。

如需切换地图:点击带黑十字的绿色按钮放大地图;点击带横线的绿色按钮缩小地图;或者点击绿色箭头查看邻近地区的地图。


METAR-TAF: